Latest Weather Observations for Stawell

IDV60801

Issued at 12:05 pm EDT Saturday 25 October 2014 (issued every 30 minutes, with the page automatically refreshed every 10 minutes)

About weather observations | Map of weather stations | Latest weather observations for VIC | Other Formats
Station Details ID: 079105 Name: STAWELL AERODROME Lat: -37.07 Lon: 142.74 Height: 235.36 m
Data from the previous 72 hours. | See also: Recent months at Stawell
Date/Time
EDT
Temp
°C
App
Temp
°C
Dew
Point
Rel
Hum
%
Delta-T
°C
Wind Press
QNH
hPa
Press
MSL
hPa
Rain
since 9 am
mm
Dir
 
Spd
km/h
Gust
km/h
Spd
kts
Gust
kts
25/12:00pm 19.3 16.3 9.2 52 5.4 SSW 15 20 8 11 1015.2 1016.0 0.0
25/11:30am 18.2 16.4 9.5 57 4.6 SSW 9 17 5 9 1015.5 - 0.0
25/11:00am 17.0 14.4 9.4 61 4.0 S 13 19 7 10 1015.6 - 0.0
25/10:30am 15.3 12.0 9.4 68 3.1 S 17 24 9 13 1015.7 - 0.0
25/10:00am 15.4 11.8 9.7 69 3.0 S 19 28 10 15 1015.6 - 0.0
25/09:30am 15.4 12.3 10.2 71 2.8 S 17 20 9 11 1015.4 - 0.0
25/09:00am 13.9 12.2 9.7 76 2.2 S 9 13 5 7 1015.5 1016.3 0.0
25/08:30am 13.2 11.4 9.5 78 1.9 S 9 17 5 9 1015.3 - 0.0
25/08:00am 12.6 12.2 9.8 83 1.4 NNE 2 7 1 4 1015.0 - 0.0
25/07:30am 11.7 9.2 9.8 88 1.0 SSE 13 19 7 10 1015.0 - 0.0
25/07:00am 11.3 7.5 9.7 90 0.8 S 20 28 11 15 1015.1 - 0.0
25/06:30am 11.4 8.0 9.3 87 1.1 SSE 17 24 9 13 1015.0 - 0.0
25/06:00am 11.7 9.1 9.4 86 1.2 SSE 13 19 7 10 1015.0 1015.8 0.0
25/05:30am 11.7 9.1 9.4 86 1.2 SE 13 22 7 12 1014.9 - 0.0
25/05:00am 11.6 10.2 9.5 87 1.1 S 7 11 4 6 1014.7 - 0.0
25/04:30am 11.7 9.9 9.4 86 1.2 SSE 9 11 5 6 1014.3 - 0.0
25/04:00am 11.8 9.2 9.5 86 1.2 SSE 13 17 7 9 1014.5 - 0.0
25/03:30am 11.5 10.1 9.6 88 1.0 S 7 11 4 6 1014.7 - 0.0
25/03:00am 11.5 10.3 9.6 88 1.0 S 6 9 3 5 1014.7 1015.4 0.0
25/02:30am 12.6 10.7 10.5 87 1.1 SSE 11 15 6 8 1014.5 - 0.0
25/02:00am 12.4 11.5 10.8 90 0.8 SSE 6 9 3 5 1014.8 - 0.0
25/01:30am 12.8 11.8 10.9 88 1.0 S 7 13 4 7 1015.1 - 0.0
25/01:00am 12.6 11.7 10.8 89 1.0 S 6 7 3 4 1015.0 - 0.0
25/12:30am 13.3 12.5 11.0 86 1.2 S 6 11 3 6 1015.0 - 0.0
25/12:00am 13.7 12.8 11.4 86 1.2 ESE 7 11 4 6 1014.8 1015.5 0.0
 
Date/Time
EDT
Temp
°C
App
Temp
°C
Dew
Point
Rel
Hum
%
Delta-T
°C
Wind Press
QNH
hPa
Press
MSL
hPa
Rain
since 9 am
mm
Dir
 
Spd
km/h
Gust
km/h
Spd
kts
Gust
kts
24/11:30pm 14.2 12.2 11.5 84 1.5 ESE 13 19 7 10 1014.9 - 0.0
24/11:00pm 15.3 14.5 11.7 79 2.0 SSE 7 13 4 7 1014.9 - 0.0
24/10:30pm 16.6 16.0 12.2 75 2.4 ESE 7 13 4 7 1014.5 - 0.0
24/10:00pm 18.1 15.7 12.8 71 3.0 SSE 17 24 9 13 1014.5 - 0.0
24/09:30pm 21.0 18.9 6.5 39 7.4 S 7 19 4 10 1013.9 - 0.0
24/09:00pm 21.7 20.6 6.8 38 7.7 WSW 2 7 1 4 1013.1 1013.9 0.0
24/08:30pm 23.1 20.9 5.5 32 9.0 WSW 6 9 3 5 1012.8 - 0.0
24/08:00pm 24.0 21.9 6.7 33 9.0 WSW 7 9 4 5 1012.4 - 0.0
24/07:30pm 25.6 23.1 6.7 30 10.0 WSW 9 15 5 8 1012.1 - 0.0
24/07:00pm 27.2 24.1 5.5 25 11.3 W 11 20 6 11 1011.5 - 0.0
24/06:30pm 27.5 22.9 3.9 22 12.0 W 17 32 9 17 1011.2 - 0.0
24/06:00pm 27.4 24.0 3.8 22 12.0 W 11 19 6 10 1011.0 1011.7 0.0
24/05:30pm 27.9 24.4 3.6 21 12.3 W 11 19 6 10 1010.5 - 0.0
24/05:00pm 28.3 23.9 2.5 19 12.9 WNW 15 22 8 12 1010.7 - 0.0
24/04:30pm 29.7 24.1 1.2 16 14.0 NW 20 26 11 14 1010.5 - 0.0
24/04:00pm 29.3 24.1 0.0 15 14.1 W 17 28 9 15 1010.7 - 0.0
24/03:30pm 29.3 23.8 0.9 16 13.9 NW 19 32 10 17 1010.6 - 0.0
24/03:00pm 29.1 23.9 2.4 18 13.4 WNW 19 28 10 15 1010.8 1011.5 0.0
24/02:30pm 29.1 24.7 4.6 21 12.7 WNW 17 30 9 16 1011.1 - 0.0
24/02:00pm 28.0 23.3 5.0 23 12.0 W 19 32 10 17 1011.3 - 0.0
24/01:30pm 27.1 23.5 4.8 24 11.5 W 13 33 7 18 1011.5 - 0.0
24/01:00pm 25.3 21.0 7.9 33 9.4 NW 20 32 11 17 1011.7 - 0.0
24/12:30pm 25.0 20.6 6.7 31 9.6 NW 19 28 10 15 1011.9 - 0.0
24/12:00pm 23.3 20.0 11.0 46 6.9 NW 19 28 10 15 1012.1 1012.9 0.0
24/11:30am 22.2 19.2 12.5 54 5.6 NW 20 30 11 16 1012.3 - 0.0
24/11:00am 21.1 19.2 13.0 60 4.7 NW 15 20 8 11 1012.1 - 0.0
24/10:30am 19.1 18.6 12.8 67 3.6 NNW 7 13 4 7 1012.1 - 0.0
24/10:00am 17.4 17.4 12.3 72 2.8 NNE 4 7 2 4 1012.2 - 0.0
24/09:30am 16.6 16.0 12.2 75 2.4 WNW 7 9 4 5 1012.2 - 0.0
24/09:00am 16.9 16.8 12.2 74 2.6 ENE 4 7 2 4 1011.9 1012.7 0.0
24/08:30am 15.4 16.2 12.7 84 1.5 CALM 0 0 0 0 1011.9 - 0.0
24/08:00am 11.9 12.4 11.7 99 0.1 CALM 0 0 0 0 1011.9 - 0.0
24/07:30am 10.9 10.4 10.7 99 0.1 SSW 4 7 2 4 1011.7 - 0.0
24/07:00am 10.4 10.5 10.1 98 0.2 CALM 0 2 0 1 1011.6 - 0.0
24/06:30am 10.3 10.3 9.8 97 0.3 CALM 0 0 0 0 1011.2 - 0.0
24/06:00am 10.9 10.7 10.4 97 0.3 ESE 2 6 1 3 1011.1 1011.8 0.0
24/05:30am 11.7 10.8 11.4 98 0.2 E 7 9 4 5 1011.2 - 0.0
24/05:00am 11.7 11.0 11.4 98 0.2 WNW 6 7 3 4 1011.2 - 0.0
24/04:30am 10.9 9.8 10.0 94 0.5 W 6 9 3 5 1011.2 - 0.0
24/04:00am 12.4 12.9 11.5 94 0.5 CALM 0 0 0 0 1011.1 - 0.0
24/03:30am 12.3 12.6 11.0 92 0.7 CALM 0 0 0 0 1011.2 - 0.0
24/03:00am 12.9 13.4 11.5 91 0.8 CALM 0 0 0 0 1011.2 1012.0 0.0
24/02:30am 13.4 13.7 12.1 92 0.7 W 2 6 1 3 1011.5 - 0.0
24/02:00am 12.9 12.6 11.3 90 0.9 SW 4 9 2 5 1011.9 - 0.0
24/01:30am 14.1 14.7 12.0 87 1.1 CALM 0 0 0 0 1012.2 - 0.0
24/01:00am 14.1 14.7 12.0 87 1.1 CALM 0 0 0 0 1012.7 - 0.0
24/12:30am 14.5 13.9 12.2 86 1.3 SSW 7 11 4 6 1012.8 - 0.0
24/12:00am 14.6 13.6 12.3 86 1.3 SW 9 13 5 7 1013.1 1013.9 0.0
 
Date/Time
EDT
Temp
°C
App
Temp
°C
Dew
Point
Rel
Hum
%
Delta-T
°C
Wind Press
QNH
hPa
Press
MSL
hPa
Rain
since 9 am
mm
Dir
 
Spd
km/h
Gust
km/h
Spd
kts
Gust
kts
23/11:30pm 14.9 13.9 12.2 84 1.5 SW 9 13 5 7 1013.4 - 0.0
23/11:00pm 15.4 14.9 12.2 81 1.8 WSW 6 7 3 4 1013.5 - 0.0
23/10:30pm 16.2 14.9 12.4 78 2.1 SSW 11 15 6 8 1013.6 - 0.0
23/10:00pm 16.8 15.8 12.3 75 2.5 SSW 9 13 5 7 1013.6 - 0.0
23/09:30pm 18.1 16.0 12.5 70 3.2 S 15 24 8 13 1013.0 - 0.0
23/09:00pm 19.3 18.1 12.8 66 3.7 S 11 17 6 9 1012.9 1013.7 0.0
23/08:30pm 20.1 18.4 12.6 62 4.3 S 13 20 7 11 1012.7 - 0.0
23/08:00pm 20.7 19.1 12.7 60 4.6 S 13 20 7 11 1012.6 - 0.0
23/07:30pm 21.9 18.9 12.5 55 5.4 S 20 32 11 17 1012.4 - 0.0
23/07:00pm 23.2 19.3 12.2 50 6.3 S 24 35 13 19 1012.4 - 0.0
23/06:30pm 24.3 21.4 12.3 47 6.9 S 19 32 10 17 1012.3 - 0.0
23/06:00pm 24.9 21.4 12.2 45 7.3 S 22 30 12 16 1012.4 1013.2 0.0
23/05:30pm 25.5 22.3 12.0 43 7.8 S 20 32 11 17 1012.4 - 0.0
23/05:00pm 25.9 22.7 12.0 42 8.0 S 20 30 11 16 1012.4 - 0.0
23/04:30pm 26.1 23.0 12.2 42 8.1 S 20 28 11 15 1012.7 - 0.0
23/04:00pm 25.6 23.0 12.1 43 7.8 S 17 24 9 13 1012.9 - 0.0
23/03:30pm 24.8 21.7 11.7 44 7.5 S 19 30 10 16 1013.4 - 0.0
23/03:00pm 24.8 21.2 11.7 44 7.5 S 22 30 12 16 1013.7 1014.4 0.0
23/02:30pm 23.7 20.5 11.4 46 7.0 S 19 24 10 13 1014.1 - 0.0
23/02:00pm 23.9 20.7 11.9 47 6.9 S 20 30 11 16 1014.5 - 0.0
23/01:30pm 22.7 20.2 12.3 52 6.0 S 17 26 9 14 1014.8 - 0.0
23/01:00pm 20.8 17.4 11.4 55 5.3 S 20 26 11 14 1015.3 - 0.0
23/12:30pm 20.3 17.1 12.0 59 4.7 S 20 30 11 16 1015.7 - 0.0
23/12:00pm 19.7 16.6 11.7 60 4.5 S 19 24 10 13 1016.0 1016.8 0.0
23/11:30am 17.9 14.6 11.7 67 3.4 S 20 28 11 15 1016.4 - 0.0
23/11:00am 17.1 13.7 11.4 69 3.1 S 20 30 11 16 1016.6 - 0.0
23/10:30am 17.5 14.3 11.8 69 3.2 S 20 28 11 15 1016.8 - 0.0
23/10:00am 16.6 14.3 11.7 73 2.7 SSE 15 24 8 13 1017.2 - 0.0
23/09:30am 15.3 12.6 11.7 79 2.0 S 17 28 9 15 1017.2 - 0.0
23/09:00am 14.5 11.7 11.3 81 1.7 S 17 24 9 13 1017.3 1018.1 1.0
23/08:30am 13.9 11.4 11.2 84 1.4 S 15 24 8 13 1017.3 - 1.0
23/08:00am 13.2 11.4 10.9 86 1.2 S 11 17 6 9 1017.3 - 1.0
23/07:30am 12.2 8.3 10.8 91 0.7 S 22 37 12 20 1017.1 - 1.0
23/07:00am 11.9 9.2 10.5 91 0.7 S 15 24 8 13 1016.9 - 1.0
23/06:30am 11.8 7.9 10.7 93 0.6 S 22 33 12 18 1016.8 - 1.0
23/06:00am 11.8 8.4 10.5 92 0.7 S 19 24 10 13 1016.7 1017.5 1.0
23/05:30am 11.9 9.3 10.8 93 0.6 S 15 20 8 11 1016.7 - 1.0
23/05:00am 11.9 7.9 10.6 92 0.7 S 22 35 12 19 1016.6 - 1.0
23/04:30am 11.9 7.9 10.6 92 0.7 S 22 33 12 18 1016.6 - 1.0
23/04:00am 11.9 8.0 10.8 93 0.6 S 22 35 12 19 1016.6 - 1.0
23/03:30am 12.0 9.4 10.6 91 0.7 S 15 20 8 11 1016.6 - 1.0
23/03:00am 12.2 9.6 10.8 91 0.7 S 15 20 8 11 1016.8 1017.6 1.0
23/02:30am 12.5 8.9 10.7 89 0.9 S 20 32 11 17 1016.9 - 1.0
23/02:00am 12.4 10.2 10.8 90 0.8 S 13 20 7 11 1016.9 - 1.0
23/01:30am 12.7 10.5 10.8 88 1.0 S 13 20 7 11 1016.9 - 1.0
23/01:00am 13.0 10.9 11.1 88 1.0 S 13 19 7 10 1017.0 - 1.0
23/12:30am 12.7 9.3 11.1 90 0.9 S 20 28 11 15 1017.2 - 1.0
23/12:00am 13.4 11.7 11.3 87 1.1 S 11 22 6 12 1017.1 1017.9 1.0
 
Date/Time
EDT
Temp
°C
App
Temp
°C
Dew
Point
Rel
Hum
%
Delta-T
°C
Wind Press
QNH
hPa
Press
MSL
hPa
Rain
since 9 am
mm
Dir
 
Spd
km/h
Gust
km/h
Spd
kts
Gust
kts
22/11:30pm 13.7 12.7 10.9 83 1.5 S 7 13 4 7 1017.2 - 1.0
22/11:00pm 15.0 14.1 11.2 78 2.1 SSW 7 11 4 6 1017.1 - 1.0
22/10:30pm 16.1 14.2 11.9 76 2.3 SSE 13 26 7 14 1017.1 - 1.0
22/10:00pm 17.4 15.1 11.9 70 3.0 S 15 20 8 11 1017.2 - 1.0
22/09:30pm 18.8 16.5 10.6 59 4.5 S 13 19 7 10 1017.1 - 1.0
22/09:00pm 20.1 18.3 12.1 60 4.5 SSE 13 19 7 10 1016.8 1017.6 1.0
22/08:30pm 21.9 18.6 12.7 56 5.3 S 22 32 12 17 1016.1 - 1.0
22/08:00pm 22.4 19.4 12.4 53 5.7 S 20 30 11 16 1015.9 - 1.0
22/07:30pm 24.1 22.2 11.8 46 7.0 SE 13 17 7 9 1015.9 - 1.0
22/07:00pm 25.4 22.3 10.4 39 8.4 ESE 17 22 9 12 1015.2 - 1.0
22/06:30pm 22.9 19.1 11.3 48 6.5 NE 22 30 12 16 1014.7 - 1.0
22/06:00pm 26.1 19.4 7.2 30 10.1 WNW 32 54 17 29 1016.1 1016.9 0.0
22/05:30pm 27.3 21.1 7.7 29 10.6 WNW 30 48 16 26 1015.0 - 0.0
22/05:26pm 27.7 21.7 7.0 27 11.1 WNW 28 48 15 26 1014.8 - 0.0
22/05:00pm 31.2 27.7 5.6 20 13.7 N 13 17 7 9 1013.7 - 0.0
22/04:30pm 32.1 27.6 6.3 20 14.0 N 19 30 10 16 1013.5 - 0.0
22/04:00pm 32.3 28.3 6.5 20 14.1 NNE 17 24 9 13 1014.0 - 0.0
22/03:30pm 31.2 26.7 6.3 21 13.5 NNW 19 26 10 14 1014.6 - 0.0
22/03:00pm 31.2 27.4 7.6 23 13.0 N 17 30 9 16 1015.1 1015.9 0.0
22/02:30pm 30.6 26.5 7.7 24 12.6 N 19 26 10 14 1015.6 - 0.0
22/02:00pm 30.4 26.9 8.7 26 12.2 N 17 28 9 15 1016.1 - 0.0
22/01:30pm 28.2 23.9 6.9 26 11.4 N 19 26 10 14 1016.3 - 0.0
22/01:00pm 28.4 24.2 7.6 27 11.3 NNW 19 24 10 13 1016.8 - 0.0
22/12:30pm 27.8 24.9 8.1 29 10.8 NNE 13 22 7 12 1017.0 - 0.0

Other Formats:

Comma delimited format used in spreadsheet applications
http://www.bom.gov.au/fwo/IDV60801/IDV60801.94836.axf

JavaScript Object Notation format (JSON) in row-major order
http://www.bom.gov.au/fwo/IDV60801/IDV60801.94836.json